createdAt,value
2019-03-16T00:00:36.620Z,16.15
2019-03-16T00:03:04.414Z,15.62
2019-03-16T00:05:32.164Z,15.98
2019-03-16T00:07:59.900Z,16.16
2019-03-16T00:10:27.650Z,15.77
2019-03-16T00:12:55.430Z,16.01
2019-03-16T00:15:23.319Z,15.54
2019-03-16T00:17:51.362Z,15.30
2019-03-16T00:20:19.115Z,16.02
2019-03-16T00:22:46.871Z,15.50
2019-03-16T00:25:14.682Z,15.51
2019-03-16T00:27:42.405Z,15.55
2019-03-16T00:30:10.176Z,16.22
2019-03-16T00:32:37.974Z,15.45
2019-03-16T00:35:05.806Z,15.71
2019-03-16T00:37:33.550Z,15.30
2019-03-16T00:40:01.296Z,15.97
2019-03-16T00:42:29.169Z,15.76
2019-03-16T00:44:56.922Z,15.45
2019-03-16T00:47:24.644Z,15.18
2019-03-16T00:49:53.456Z,15.44
2019-03-16T00:52:21.202Z,15.88
2019-03-16T00:54:48.947Z,15.41
2019-03-16T00:57:16.676Z,15.24
2019-03-16T00:59:44.408Z,15.70
2019-03-16T01:02:12.156Z,15.68
2019-03-16T01:04:39.892Z,16.11
2019-03-16T01:07:07.635Z,16.14
2019-03-16T01:09:35.400Z,16.07
2019-03-16T01:12:03.136Z,15.50
2019-03-16T01:14:30.865Z,15.81
2019-03-16T01:16:58.655Z,15.61
2019-03-16T01:19:26.411Z,15.38
2019-03-16T01:21:54.413Z,15.21
2019-03-16T01:24:22.158Z,15.11
2019-03-16T01:26:49.909Z,15.04
2019-03-16T01:29:17.909Z,15.41
2019-03-16T01:31:45.649Z,15.41
2019-03-16T01:34:13.406Z,15.20
2019-03-16T01:36:41.234Z,15.75
2019-03-16T01:39:09.270Z,15.72
2019-03-16T01:41:37.040Z,15.44
2019-03-16T01:44:04.786Z,15.15
2019-03-16T01:46:32.539Z,15.45
2019-03-16T01:49:00.270Z,15.24
2019-03-16T01:51:28.045Z,15.39
2019-03-16T01:53:55.788Z,15.02
2019-03-16T01:56:23.529Z,15.20
2019-03-16T01:58:51.279Z,15.28
2019-03-16T02:01:19.144Z,15.45
2019-03-16T02:03:46.980Z,15.40
2019-03-16T02:06:14.860Z,15.23
2019-03-16T02:08:42.878Z,15.42
2019-03-16T02:11:10.661Z,14.89
2019-03-16T02:13:38.433Z,15.13
2019-03-16T02:16:11.270Z,14.83
2019-03-16T02:18:35.659Z,15.18
2019-03-16T02:21:03.402Z,14.97
2019-03-16T02:23:31.160Z,14.85
2019-03-16T02:25:58.929Z,15.40
2019-03-16T02:28:26.738Z,15.62
2019-03-16T02:30:54.563Z,15.61
2019-03-16T02:33:22.319Z,15.08
2019-03-16T02:35:50.116Z,14.94
2019-03-16T02:38:17.912Z,15.00
2019-03-16T02:40:45.760Z,14.96
2019-03-16T02:43:13.517Z,14.84
2019-03-16T02:45:41.254Z,15.40
2019-03-16T02:48:09.017Z,15.38
2019-03-16T02:50:37.127Z,15.98
2019-03-16T02:53:04.851Z,15.19
2019-03-16T02:55:32.688Z,14.89
2019-03-16T02:58:00.439Z,14.90
2019-03-16T03:00:28.174Z,14.78
2019-03-16T03:02:56.064Z,15.43
2019-03-16T03:05:23.861Z,15.55
2019-03-16T03:07:52.002Z,15.60
2019-03-16T03:10:19.808Z,15.13
2019-03-16T03:12:47.576Z,15.12
2019-03-16T03:15:15.431Z,15.26
2019-03-16T03:17:43.228Z,15.28
2019-03-16T03:20:11.069Z,14.92
2019-03-16T03:22:38.926Z,15.39
2019-03-16T03:25:06.769Z,15.03
2019-03-16T03:27:34.607Z,14.93
2019-03-16T03:30:02.372Z,14.86
2019-03-16T03:32:30.415Z,14.92
2019-03-16T03:34:58.301Z,15.03
2019-03-16T03:37:26.057Z,15.47
2019-03-16T03:39:53.801Z,15.54
2019-03-16T03:42:21.536Z,15.92
2019-03-16T03:44:49.309Z,15.35
2019-03-16T03:47:17.080Z,15.05
2019-03-16T03:49:44.905Z,15.23
2019-03-16T03:52:12.651Z,15.51
2019-03-16T03:54:40.421Z,15.20
2019-03-16T03:57:08.153Z,15.23
2019-03-16T03:59:35.915Z,15.06
2019-03-16T04:02:03.686Z,14.91
2019-03-16T04:04:31.538Z,14.97
2019-03-16T04:06:59.326Z,14.86
2019-03-16T04:09:27.184Z,15.54
2019-03-16T04:11:54.984Z,15.66
2019-03-16T04:14:22.741Z,15.10
2019-03-16T04:16:50.490Z,15.13
2019-03-16T04:19:18.237Z,15.17
2019-03-16T04:21:45.984Z,14.93
2019-03-16T04:24:13.834Z,14.93
2019-03-16T04:26:41.606Z,14.83
2019-03-16T04:29:09.468Z,15.44
2019-03-16T04:31:37.703Z,15.17
2019-03-16T04:34:05.509Z,15.12
2019-03-16T04:36:33.277Z,15.00
2019-03-16T04:39:01.137Z,15.07
2019-03-16T04:41:28.891Z,15.10
2019-03-16T04:43:56.649Z,14.90
2019-03-16T04:46:24.401Z,15.31
2019-03-16T04:48:52.236Z,15.53
2019-03-16T04:51:19.964Z,14.97
2019-03-16T04:53:47.768Z,14.94
2019-03-16T04:56:15.588Z,15.29
2019-03-16T04:58:43.340Z,15.00
2019-03-16T05:01:11.080Z,15.08
2019-03-16T05:03:38.831Z,15.10
2019-03-16T05:06:06.616Z,15.08
2019-03-16T05:08:34.401Z,14.92
2019-03-16T05:11:02.283Z,15.22
2019-03-16T05:13:30.035Z,14.92
2019-03-16T05:15:57.778Z,14.87
2019-03-16T05:18:25.541Z,14.94
2019-03-16T05:20:53.610Z,14.99
2019-03-16T05:23:21.554Z,14.92
2019-03-16T05:25:49.289Z,15.13
2019-03-16T05:28:17.064Z,14.92
2019-03-16T05:30:44.813Z,14.95
2019-03-16T05:33:12.579Z,14.97
2019-03-16T05:35:40.316Z,14.97
2019-03-16T05:38:08.068Z,14.94
2019-03-16T05:40:35.796Z,14.96
2019-03-16T05:43:03.593Z,14.97
2019-03-16T05:45:31.336Z,15.00
2019-03-16T05:47:59.076Z,14.94
2019-03-16T05:50:26.824Z,14.98
2019-03-16T05:52:54.584Z,14.99
2019-03-16T05:55:22.496Z,14.94
2019-03-16T05:57:50.343Z,14.90
2019-03-16T06:00:18.086Z,14.86
2019-03-16T06:02:45.840Z,14.92
2019-03-16T06:05:13.588Z,15.02
2019-03-16T06:07:41.375Z,15.04
2019-03-16T06:10:09.139Z,15.00
2019-03-16T06:12:36.888Z,15.00
2019-03-16T06:15:04.704Z,15.05
2019-03-16T06:17:32.435Z,15.10
2019-03-16T06:20:00.374Z,15.04
2019-03-16T06:22:28.351Z,15.18
2019-03-16T06:24:56.449Z,15.10
2019-03-16T06:27:24.260Z,15.09
2019-03-16T06:29:52.010Z,15.29
2019-03-16T06:32:19.796Z,15.16
2019-03-16T06:34:47.557Z,15.08
2019-03-16T06:37:15.412Z,15.13
2019-03-16T06:39:43.269Z,15.14
2019-03-16T06:42:11.026Z,15.26
2019-03-16T06:44:38.830Z,15.17
2019-03-16T06:47:06.564Z,15.14
2019-03-16T06:49:34.331Z,15.16
2019-03-16T06:52:02.077Z,15.19
2019-03-16T06:54:29.849Z,15.20
2019-03-16T06:56:57.632Z,15.14
2019-03-16T06:59:25.498Z,15.26
2019-03-16T07:01:53.239Z,15.29
2019-03-16T07:04:21.142Z,15.26
2019-03-16T07:06:49.009Z,15.27
2019-03-16T07:09:16.756Z,15.25
2019-03-16T07:11:44.584Z,15.23
2019-03-16T07:14:12.375Z,15.38
2019-03-16T07:16:40.192Z,15.21
2019-03-16T07:19:07.957Z,15.27
2019-03-16T07:21:35.695Z,15.30
2019-03-16T07:24:03.589Z,15.46
2019-03-16T07:26:31.329Z,15.36
2019-03-16T07:28:59.144Z,15.38
2019-03-16T07:31:28.178Z,15.32
2019-03-16T07:33:56.141Z,15.32
2019-03-16T07:36:24.114Z,15.34
2019-03-16T07:38:52.124Z,15.38
2019-03-16T07:41:19.953Z,15.26
2019-03-16T07:43:47.719Z,15.39
2019-03-16T07:46:15.461Z,15.38
2019-03-16T07:48:43.220Z,15.39
2019-03-16T07:51:10.977Z,15.42
2019-03-16T07:53:38.763Z,15.46
2019-03-16T07:56:06.758Z,15.48
2019-03-16T07:58:34.606Z,15.53
2019-03-16T08:01:03.599Z,15.58
2019-03-16T08:03:31.618Z,15.58
2019-03-16T08:05:59.352Z,15.53
2019-03-16T08:08:27.154Z,15.53
2019-03-16T08:10:54.969Z,15.58
2019-03-16T08:13:22.717Z,15.58
2019-03-16T08:15:50.768Z,15.58
2019-03-16T08:18:18.518Z,15.61
2019-03-16T08:20:46.341Z,15.64
2019-03-16T08:23:14.141Z,15.64
2019-03-16T08:25:41.888Z,15.64
2019-03-16T08:28:09.662Z,15.68
2019-03-16T08:30:37.573Z,15.55
2019-03-16T08:33:05.365Z,15.67
2019-03-16T08:35:33.112Z,15.70
2019-03-16T08:38:00.869Z,15.83
2019-03-16T08:40:28.620Z,15.80
2019-03-16T08:42:56.437Z,15.90
2019-03-16T08:45:24.205Z,15.85
2019-03-16T08:47:52.104Z,15.72
2019-03-16T08:50:19.894Z,15.78
2019-03-16T08:52:47.736Z,15.85
2019-03-16T08:55:15.491Z,15.89
2019-03-16T08:57:43.248Z,15.90
2019-03-16T09:00:11.273Z,15.86
2019-03-16T09:02:39.162Z,15.86
2019-03-16T09:05:07.048Z,15.90
2019-03-16T09:07:34.865Z,15.94
2019-03-16T09:10:02.692Z,16.01
2019-03-16T09:12:30.681Z,16.03
2019-03-16T09:14:58.521Z,15.89
2019-03-16T09:17:26.251Z,15.95
2019-03-16T09:19:54.004Z,15.99
2019-03-16T09:22:21.769Z,15.94
2019-03-16T09:24:49.517Z,16.01
2019-03-16T09:27:17.284Z,16.08
2019-03-16T09:29:45.129Z,16.09
2019-03-16T09:32:12.863Z,16.19
2019-03-16T09:34:40.629Z,16.07
2019-03-16T09:37:08.690Z,16.18
2019-03-16T09:39:36.629Z,16.05
2019-03-16T09:42:04.641Z,16.28
2019-03-16T09:44:32.373Z,16.27
2019-03-16T09:47:00.378Z,16.09
2019-03-16T09:49:28.166Z,16.16
2019-03-16T09:51:55.973Z,16.14
2019-03-16T09:54:23.822Z,16.15
2019-03-16T09:57:00.737Z,16.07
2019-03-16T09:59:21.062Z,16.11
2019-03-16T10:01:48.841Z,16.15
2019-03-16T10:04:16.759Z,16.06
2019-03-16T10:06:44.692Z,16.08
2019-03-16T10:09:12.443Z,16.21
2019-03-16T10:11:40.252Z,16.09
2019-03-16T10:14:09.073Z,16.14
2019-03-16T10:16:36.890Z,16.17
2019-03-16T10:19:04.754Z,16.22
2019-03-16T10:21:32.546Z,16.28
2019-03-16T10:27:10.418Z,16.21
2019-03-16T10:29:38.204Z,16.22
2019-03-16T10:32:06.032Z,16.16
2019-03-16T10:34:33.761Z,16.27
2019-03-16T10:37:01.538Z,16.37
2019-03-16T10:39:29.287Z,16.33
2019-03-16T10:41:57.236Z,16.28
2019-03-16T10:44:25.173Z,16.34
2019-03-16T10:46:52.931Z,16.34
2019-03-16T10:49:20.686Z,16.42
2019-03-16T10:51:48.533Z,16.34
2019-03-16T10:54:16.328Z,16.45
2019-03-16T10:56:44.224Z,16.40
2019-03-16T10:59:11.978Z,16.25
2019-03-16T11:01:39.771Z,16.29
2019-03-16T11:04:07.704Z,16.29
2019-03-16T11:06:35.510Z,16.34
2019-03-16T11:09:04.254Z,16.35
2019-03-16T11:11:32.116Z,16.40
2019-03-16T11:13:59.846Z,16.29
2019-03-16T11:16:27.732Z,16.39
2019-03-16T11:18:55.671Z,16.45
2019-03-16T11:21:23.639Z,16.34
2019-03-16T11:23:51.370Z,16.46
2019-03-16T11:26:19.117Z,16.45
2019-03-16T11:28:46.858Z,16.48
2019-03-16T11:31:14.637Z,16.49
2019-03-16T11:33:42.399Z,16.49
2019-03-16T11:36:10.220Z,16.49
2019-03-16T11:38:37.965Z,16.48
2019-03-16T11:41:05.777Z,16.43
2019-03-16T11:43:34.713Z,16.34
2019-03-16T11:46:02.462Z,16.39
2019-03-16T11:48:30.204Z,16.42
2019-03-16T11:50:58.123Z,16.41
2019-03-16T11:53:25.977Z,16.46
2019-03-16T11:55:54.576Z,16.52
2019-03-16T11:58:22.897Z,16.49
2019-03-16T12:00:51.077Z,16.49
2019-03-16T12:03:20.557Z,16.48
2019-03-16T12:05:48.364Z,16.48
2019-03-16T12:08:16.208Z,16.48
2019-03-16T12:10:43.981Z,16.52
2019-03-16T12:13:17.675Z,16.54
2019-03-16T12:15:44.131Z,16.19
2019-03-16T12:18:11.970Z,16.53
2019-03-16T12:20:40.873Z,16.51
2019-03-16T12:23:11.753Z,16.36
2019-03-16T12:25:40.917Z,16.44
2019-03-16T12:28:08.701Z,16.48
2019-03-16T12:30:36.491Z,16.50
2019-03-16T12:33:04.320Z,16.51
2019-03-16T12:35:32.166Z,16.51
2019-03-16T12:37:59.971Z,16.55
2019-03-16T12:40:27.751Z,16.58
2019-03-16T12:42:55.605Z,16.48
2019-03-16T12:45:23.399Z,16.50
2019-03-16T12:47:51.229Z,16.50
2019-03-16T12:50:19.033Z,16.38
2019-03-16T12:52:47.042Z,16.52
2019-03-16T12:55:15.211Z,16.50
2019-03-16T12:57:42.991Z,16.48
2019-03-16T13:00:11.530Z,16.56
2019-03-16T13:02:39.374Z,16.47
2019-03-16T13:05:07.129Z,16.47
2019-03-16T13:07:34.881Z,16.43
2019-03-16T13:10:02.654Z,16.49
2019-03-16T13:12:30.488Z,16.49
2019-03-16T13:14:58.280Z,16.48
2019-03-16T13:17:26.087Z,16.55
2019-03-16T13:19:53.909Z,16.41
2019-03-16T13:22:21.786Z,16.43
2019-03-16T13:24:49.648Z,16.51
2019-03-16T13:27:17.413Z,16.56
2019-03-16T13:29:45.139Z,16.49
2019-03-16T13:32:13.144Z,16.50
2019-03-16T13:34:40.878Z,16.49
2019-03-16T13:37:08.623Z,16.54
2019-03-16T13:39:36.453Z,16.48
2019-03-16T13:42:04.226Z,16.49
2019-03-16T13:44:32.369Z,16.44
2019-03-16T13:47:00.123Z,16.39
2019-03-16T13:49:27.932Z,16.45
2019-03-16T13:51:55.700Z,16.47
2019-03-16T13:54:24.174Z,16.41
2019-03-16T13:56:51.980Z,16.39
2019-03-16T13:59:19.950Z,16.43
2019-03-16T14:01:47.956Z,16.48
2019-03-16T14:04:15.763Z,16.47
2019-03-16T14:06:43.517Z,16.50
2019-03-16T14:09:11.740Z,16.41
2019-03-16T14:11:41.296Z,16.49
2019-03-16T14:14:09.002Z,16.45
2019-03-16T14:16:36.764Z,16.40
2019-03-16T14:19:04.959Z,16.35
2019-03-16T14:21:33.185Z,16.44
2019-03-16T14:24:00.925Z,16.46
2019-03-16T14:26:28.750Z,16.35
2019-03-16T14:28:56.887Z,16.37
2019-03-16T14:31:24.713Z,16.43
2019-03-16T14:33:52.585Z,16.45
2019-03-16T14:36:20.356Z,16.35
2019-03-16T14:38:48.315Z,16.32
2019-03-16T14:41:16.193Z,16.40
2019-03-16T14:43:43.976Z,16.34
2019-03-16T14:46:11.851Z,16.45
2019-03-16T14:48:39.606Z,16.41
2019-03-16T14:51:07.367Z,16.39
2019-03-16T14:53:35.137Z,16.34
2019-03-16T14:56:02.873Z,16.27
2019-03-16T14:58:30.653Z,16.26
2019-03-16T15:00:58.476Z,16.29
2019-03-16T15:03:26.228Z,16.29
2019-03-16T15:05:54.043Z,16.26
2019-03-16T15:08:21.887Z,16.36
2019-03-16T15:10:49.729Z,16.26
2019-03-16T15:13:17.542Z,16.23
2019-03-16T15:15:45.290Z,16.24
2019-03-16T15:18:13.064Z,16.25
2019-03-16T15:20:40.997Z,16.22
2019-03-16T15:23:09.070Z,16.22
2019-03-16T15:25:37.134Z,16.22
2019-03-16T15:28:06.528Z,16.23
2019-03-16T15:30:36.095Z,16.23
2019-03-16T15:33:04.079Z,16.21
2019-03-16T15:35:32.478Z,16.19
2019-03-16T15:38:00.447Z,16.22
2019-03-16T15:40:29.302Z,16.27
2019-03-16T15:43:01.243Z,16.28
2019-03-16T15:45:29.049Z,16.24
2019-03-16T15:47:56.835Z,16.14
2019-03-16T15:50:24.704Z,16.21
2019-03-16T15:52:52.604Z,16.22
2019-03-16T15:55:20.417Z,16.22
2019-03-16T15:57:48.177Z,16.12
2019-03-16T16:00:15.959Z,16.15
2019-03-16T16:02:45.213Z,16.16
2019-03-16T16:05:13.002Z,16.15
2019-03-16T16:07:40.823Z,16.22
2019-03-16T16:10:09.104Z,16.20
2019-03-16T16:12:36.964Z,16.20
2019-03-16T16:15:05.286Z,16.19
2019-03-16T16:17:33.028Z,16.22
2019-03-16T16:20:00.858Z,15.87
2019-03-16T16:22:28.650Z,16.14
2019-03-16T16:24:56.412Z,16.16
2019-03-16T16:27:24.441Z,16.28
2019-03-16T16:29:52.298Z,16.28
2019-03-16T16:32:20.201Z,16.36
2019-03-16T16:34:48.036Z,16.42
2019-03-16T16:37:20.172Z,16.37
2019-03-16T16:39:48.077Z,16.35
2019-03-16T16:42:16.092Z,16.33
2019-03-16T16:44:43.901Z,16.30
2019-03-16T16:47:11.763Z,16.35
2019-03-16T16:49:39.783Z,16.34
2019-03-16T16:52:08.807Z,16.28
2019-03-16T16:54:37.795Z,16.15
2019-03-16T16:57:05.676Z,16.29
2019-03-16T16:59:33.425Z,16.32
2019-03-16T17:02:01.239Z,16.34
2019-03-16T17:04:29.046Z,16.31
2019-03-16T17:06:56.776Z,16.32
2019-03-16T17:09:25.350Z,16.32
2019-03-16T17:11:53.122Z,16.37
2019-03-16T17:14:20.853Z,16.30
2019-03-16T17:16:48.619Z,16.32
2019-03-16T17:19:16.420Z,16.03
2019-03-16T17:21:44.277Z,16.32
2019-03-16T17:24:12.109Z,16.37
2019-03-16T17:26:39.853Z,16.28
2019-03-16T17:29:07.587Z,16.39
2019-03-16T17:31:42.088Z,16.31
2019-03-16T17:34:04.799Z,16.38
2019-03-16T17:36:32.570Z,16.52
2019-03-16T17:39:00.346Z,16.41
2019-03-16T17:41:28.080Z,16.50
2019-03-16T17:43:55.874Z,16.52
2019-03-16T17:46:23.605Z,16.44
2019-03-16T17:48:51.355Z,16.48
2019-03-16T17:51:19.099Z,16.60
2019-03-16T17:53:47.138Z,16.42
2019-03-16T17:56:14.908Z,16.48
2019-03-16T17:58:42.643Z,16.47
2019-03-16T18:01:10.427Z,16.10
2019-03-16T18:03:38.209Z,16.62
2019-03-16T18:06:05.950Z,16.61
2019-03-16T18:08:33.718Z,16.50
2019-03-16T18:11:01.459Z,16.49
2019-03-16T18:13:29.187Z,16.52
2019-03-16T18:15:56.916Z,16.37
2019-03-16T18:18:24.661Z,16.41
2019-03-16T18:20:52.436Z,16.48
2019-03-16T18:23:20.247Z,16.35
2019-03-16T18:25:48.021Z,16.49
2019-03-16T18:28:15.837Z,16.43
2019-03-16T18:30:43.579Z,16.38
2019-03-16T18:33:11.327Z,16.37
2019-03-16T18:35:39.068Z,16.37
2019-03-16T18:38:06.810Z,16.42
2019-03-16T18:40:34.809Z,16.46
2019-03-16T18:43:02.560Z,16.39
2019-03-16T18:45:30.568Z,16.48
2019-03-16T18:47:58.568Z,16.40
2019-03-16T18:50:26.472Z,16.56
2019-03-16T18:52:54.254Z,16.48
2019-03-16T18:55:22.084Z,16.45
2019-03-16T18:57:49.838Z,16.46
2019-03-16T19:00:17.678Z,16.28
2019-03-16T19:02:45.516Z,16.35
2019-03-16T19:05:13.355Z,16.44
2019-03-16T19:07:41.104Z,16.50
2019-03-16T19:10:09.435Z,16.58
2019-03-16T19:12:37.177Z,16.53
2019-03-16T19:15:05.310Z,16.57
2019-03-16T19:17:33.139Z,16.60
2019-03-16T19:20:00.898Z,16.46
2019-03-16T19:22:28.649Z,16.43
2019-03-16T19:24:56.409Z,16.45
2019-03-16T19:27:24.230Z,16.42
2019-03-16T19:29:52.031Z,16.39
2019-03-16T19:32:19.765Z,16.40
2019-03-16T19:34:47.512Z,16.16
2019-03-16T19:37:15.241Z,16.28
2019-03-16T19:39:42.992Z,16.46
2019-03-16T19:42:10.728Z,16.42
2019-03-16T19:44:38.528Z,16.48
2019-03-16T19:47:06.287Z,16.40
2019-03-16T19:49:34.029Z,16.69
2019-03-16T19:52:01.820Z,16.51
2019-03-16T19:54:29.609Z,16.61
2019-03-16T19:56:57.494Z,16.69
2019-03-16T19:59:25.227Z,16.69
2019-03-16T20:01:52.984Z,16.58
2019-03-16T20:04:20.728Z,16.49
2019-03-16T20:06:48.725Z,16.69
2019-03-16T20:09:16.468Z,16.59
2019-03-16T20:11:44.356Z,16.59
2019-03-16T20:14:12.267Z,16.56
2019-03-16T20:16:40.064Z,16.58
2019-03-16T20:19:07.797Z,16.52
2019-03-16T20:21:35.730Z,16.45
2019-03-16T20:24:04.837Z,16.56
2019-03-16T20:26:32.585Z,16.53
2019-03-16T20:29:00.319Z,16.53
2019-03-16T20:31:28.092Z,16.66
2019-03-16T20:33:55.820Z,16.48
2019-03-16T20:36:23.608Z,16.48
2019-03-16T20:38:51.336Z,16.68
2019-03-16T20:41:19.160Z,16.70
2019-03-16T20:43:47.209Z,16.63
2019-03-16T20:46:15.032Z,16.62
2019-03-16T20:48:42.778Z,16.57
2019-03-16T20:51:10.724Z,16.66
2019-03-16T20:53:38.456Z,16.55
2019-03-16T20:56:06.306Z,16.53
2019-03-16T20:58:34.116Z,16.68
2019-03-16T21:01:01.900Z,16.63
2019-03-16T21:03:29.928Z,16.84
2019-03-16T21:05:57.753Z,16.63
2019-03-16T21:08:25.491Z,16.68
2019-03-16T21:10:53.336Z,16.59
2019-03-16T21:13:21.101Z,16.65
2019-03-16T21:15:48.845Z,16.57
2019-03-16T21:18:16.721Z,16.61
2019-03-16T21:20:44.560Z,16.51
2019-03-16T21:23:12.339Z,16.50
2019-03-16T21:25:40.332Z,16.67
2019-03-16T21:28:08.077Z,16.48
2019-03-16T21:30:36.077Z,16.64
2019-03-16T21:33:03.845Z,16.71
2019-03-16T21:35:31.659Z,16.61
2019-03-16T21:37:59.461Z,16.59
2019-03-16T21:40:27.204Z,16.40
2019-03-16T21:42:55.039Z,16.49
2019-03-16T21:45:22.767Z,16.63
2019-03-16T21:47:59.530Z,16.52
2019-03-16T21:50:20.023Z,16.50
2019-03-16T21:52:47.855Z,16.56
2019-03-16T21:55:15.617Z,16.52
2019-03-16T21:57:46.253Z,16.49
2019-03-16T22:00:14.086Z,16.64
2019-03-16T22:02:41.941Z,16.57
2019-03-16T22:05:10.106Z,16.48
2019-03-16T22:07:37.954Z,16.39
2019-03-16T22:10:05.788Z,16.50
2019-03-16T22:12:33.658Z,16.51
2019-03-16T22:15:04.044Z,16.52
2019-03-16T22:17:32.076Z,16.36
2019-03-16T22:19:59.854Z,16.59
2019-03-16T22:22:27.913Z,16.51
2019-03-16T22:24:55.757Z,16.44
2019-03-16T22:27:23.829Z,16.49
2019-03-16T22:29:51.787Z,16.50
2019-03-16T22:32:19.811Z,16.47
2019-03-16T22:34:47.742Z,16.52
2019-03-16T22:37:16.025Z,16.38
2019-03-16T22:39:43.831Z,16.41
2019-03-16T22:42:11.617Z,16.58
2019-03-16T22:44:40.324Z,16.54
2019-03-16T22:47:08.235Z,16.33
2019-03-16T22:49:36.005Z,16.42
2019-03-16T22:52:03.770Z,16.44
2019-03-16T22:54:31.818Z,16.42
2019-03-16T22:57:03.083Z,16.64
2019-03-16T22:59:30.844Z,16.47
2019-03-16T23:02:25.172Z,16.41
2019-03-16T23:04:53.076Z,16.38
2019-03-16T23:07:23.270Z,16.40
2019-03-16T23:09:51.047Z,16.39
2019-03-16T23:12:18.905Z,16.41
2019-03-16T23:14:48.257Z,16.35
2019-03-16T23:17:16.074Z,16.31
2019-03-16T23:19:43.882Z,16.31
2019-03-16T23:22:11.647Z,16.19
2019-03-16T23:24:39.556Z,16.41
2019-03-16T23:27:07.334Z,16.31
2019-03-16T23:29:35.113Z,16.31
2019-03-16T23:32:02.870Z,16.36
2019-03-16T23:34:30.758Z,16.23
2019-03-16T23:36:58.542Z,16.31
2019-03-16T23:39:26.664Z,16.29
2019-03-16T23:41:54.413Z,16.40
2019-03-16T23:44:22.528Z,16.37
2019-03-16T23:46:50.282Z,16.38
2019-03-16T23:49:18.162Z,16.26
2019-03-16T23:51:47.754Z,16.29
2019-03-16T23:54:15.543Z,16.36
2019-03-16T23:56:43.303Z,16.32
2019-03-16T23:59:11.055Z,16.24
